Accueil
METAR-TAF:

METAR-TAF

Aéroports :

Laupheim, Allemagne

latitude: 48-13N, longitude: 009-55E, altitude: 538 m

Observation

Le bulletin a été fait il y a 52 minutes, à 02:20 UTC
Vent 4 kt de ouest
Température 14°C
Humidité 82%
Pression 1022 hPa
Visibilité: 9000 m

METAR: ETHL 060220Z AUTO 27004KT 9000 // ////// 14/11 Q1022 ///

Heure: 05:12 (03:12 UTC)

Prévision

Le bulletin a été fait il y a 14 heures et 10 minutes, à 13:02 UTC
Prévision valable du 05 à 14 UTC au 05 à 23 UTC
Vent 5 kt de nord-ouest
Visibilité 10 km ou plus
Nuages épars à une hauteur de 6000 ft

TAF: ETHL 051302Z 0514/0523 31005KT 9999 NSW SCT060

Observations et prévisions météorologiques de plus de 4000 aéroports (messages METAR et TAF).

Les stations disponibles sont représentées par des disques jaunes et rouges sur la carte.

Passer la souris dessus pour voir le nom de la station.

Cliquer dessus pour voir les observations et prévisions météorologiques.

Pour changer de carte: cliquez sur les boutons verts avec une croix noire pour zoomer, sur le bouton vert avec un tiret pour effectuer un zoom arrière, ou sur les flèches vertes pour les cartes adjacentes.


METAR-TAF: